Aeroporto :
LOGIN :

Iscrizione | Disclaimer

   EN    FR    IT 

 










Sommario :    VFR   VFR Marginale   IFR   IFR Intensivo   IFR Molto Intensivo
Visibilità : 
Base nubi : 
>= 8 km
>= 3000ft
5 / 8 km
1000 / 3000 ft
1500m / 5 km
500 / 1000 ft
800 / 1500m
200 / 500 ft
< 800m
< 200 ft
Simboli :   Temporali  Nebbia  Neve Forte  Precipitazioni Forti  Vento > 20 kt
SIGMETs :   Varie  Temporali  Ghiacco  Turbolenza  Onda orograficha  Ceneri Vulcaniche






- Altitudine del aeroporto : 200 ft


EBBL - Klein Brogel AB

METARs OBSOLETI :
  • 270325Z AUTO VRB02KT 7000 OVC037/// 04/04 Q1019 WHT
  • 270255Z AUTO VRB02KT 6000 BKN037/// OVC130/// 04/04 Q1019 WHT
  • 270225Z AUTO VRB01KT 6000 BKN036/// BKN066/// OVC074/// 04/04 Q1019 WHT

TAF TAF EBBL
Valido dal 26 a 19 ore il 27 a 07 ore UTC


261541Z 2619/2707 VRB03KT 7000 FEW050
BECMG 2621/2623 4000 BR
BECMG 2701/2703 2000 BR SCT002
PROB40
BECMG 2702/2704 0800 FG SCT000 BKN001



MetMap, La meteo Aeronautica in un colpo d'occhio ! - Copyright ORBIFLY Dicembre 2007 - Disclaimer

ORBIFLY MET'MAP TEAM :

Programmazione e sviluppo : Alexandra Zaïnal
Concezione : Baudouin d'Aumeries
Aiuto per la programmazione : Marc-Olivier Méhu
Supporto tecnico e logistico : Manuel Goepfert
Aiuto per la traduzione : Arnaldo La Scala

Contatto : metmap@orbifly.com




FONTI E CREDITI :

   NOAA